createdAt,value
2019-04-05T09:00:09.266Z,52.63
2019-04-05T09:02:40.199Z,53.73
2019-04-05T09:05:11.344Z,50.80
2019-04-05T09:07:42.217Z,52.57
2019-04-05T09:10:13.150Z,52.77
2019-04-05T09:12:43.875Z,50.70
2019-04-05T09:15:14.862Z,51.17
2019-04-05T09:17:45.560Z,50.10
2019-04-05T09:20:16.232Z,49.53
2019-04-05T09:22:47.250Z,48.23
2019-04-05T09:25:19.784Z,47.83
2019-04-05T09:27:50.660Z,48.10
2019-04-05T09:30:23.319Z,45.37
2019-04-05T09:32:54.019Z,45.10
2019-04-05T09:35:24.735Z,45.20
2019-04-05T09:37:55.673Z,43.03
2019-04-05T09:40:26.724Z,43.83
2019-04-05T09:42:57.680Z,42.57
2019-04-05T09:45:28.376Z,43.20
2019-04-05T09:47:59.064Z,42.70
2019-04-05T09:50:30.740Z,43.43
2019-04-05T09:53:01.449Z,41.33
2019-04-05T09:55:32.532Z,38.10
2019-04-05T09:58:03.721Z,37.20
2019-04-05T10:00:36.129Z,38.70
2019-04-05T10:03:09.944Z,37.43
2019-04-05T10:05:40.637Z,38.90
2019-04-05T10:08:11.335Z,37.93
2019-04-05T10:10:42.571Z,36.93
2019-04-05T10:13:14.718Z,38.37
2019-04-05T10:15:46.921Z,36.43
2019-04-05T10:18:18.014Z,36.33
2019-04-05T10:20:48.825Z,35.97
2019-04-05T10:23:19.759Z,34.57
2019-04-05T10:25:50.837Z,34.17
2019-04-05T10:28:21.547Z,32.00
2019-04-05T10:30:52.277Z,30.77
2019-04-05T10:33:23.341Z,29.47
2019-04-05T10:35:55.157Z,30.50
2019-04-05T10:38:25.875Z,28.83
2019-04-05T10:40:56.563Z,30.03
2019-04-05T10:43:27.725Z,29.67
2019-04-05T10:45:58.818Z,28.63
2019-04-05T10:48:29.501Z,27.10
2019-04-05T10:51:00.459Z,25.47
2019-04-05T10:53:31.443Z,23.53
2019-04-05T10:56:02.120Z,27.10
2019-04-05T10:58:32.834Z,33.97
2019-04-05T11:01:03.506Z,40.70
2019-04-05T11:03:34.179Z,41.53
2019-04-05T11:06:05.220Z,38.57
2019-04-05T11:08:35.967Z,35.47
2019-04-05T11:11:06.679Z,31.07
2019-04-05T11:13:37.608Z,32.33
2019-04-05T11:16:08.584Z,30.13
2019-04-05T11:18:39.241Z,30.93
2019-04-05T11:21:10.217Z,30.13
2019-04-05T11:23:40.903Z,31.00
2019-04-05T11:26:12.059Z,30.03
2019-04-05T11:28:43.269Z,28.67
2019-04-05T11:31:14.035Z,33.03
2019-04-05T11:33:45.001Z,38.00
2019-04-05T11:36:15.993Z,36.53
2019-04-05T11:38:50.058Z,33.23
2019-04-05T11:41:21.478Z,37.27
2019-04-05T11:43:55.702Z,37.37
2019-04-05T11:46:27.951Z,37.83
2019-04-05T11:49:01.354Z,38.23
2019-04-05T11:51:32.673Z,34.23
2019-04-05T11:54:05.470Z,34.27
2019-04-05T11:56:36.932Z,35.17
2019-04-05T11:59:09.747Z,33.50
2019-04-05T12:01:45.312Z,33.03
2019-04-05T12:04:16.089Z,33.40
2019-04-05T12:06:52.043Z,34.63
2019-04-05T12:09:22.938Z,32.20
2019-04-05T12:11:54.013Z,32.53
2019-04-05T12:14:30.336Z,30.50
2019-04-05T12:16:57.400Z,30.37
2019-04-05T12:19:28.446Z,30.37
2019-04-05T12:21:59.108Z,28.57
2019-04-05T12:24:32.495Z,28.67
2019-04-05T12:27:04.438Z,29.03
2019-04-05T12:29:35.438Z,31.40
2019-04-05T12:32:06.404Z,31.43
2019-04-05T12:34:37.369Z,23.50
2019-04-05T12:37:08.024Z,30.77
2019-04-05T12:39:38.859Z,27.07
2019-04-05T12:42:11.983Z,18.67
2019-04-05T12:44:45.035Z,19.73
2019-04-05T12:47:15.772Z,19.77
2019-04-05T12:49:47.116Z,20.17
2019-04-05T12:52:23.065Z,30.90
2019-04-05T12:54:54.641Z,30.60
2019-04-05T12:57:23.470Z,27.00
2019-04-05T12:59:56.434Z,39.87
2019-04-05T13:02:33.935Z,50.77
2019-04-05T13:05:01.297Z,46.43
2019-04-05T13:07:34.883Z,82.37
2019-04-05T13:10:06.746Z,39.20
2019-04-05T13:12:37.402Z,32.37
2019-04-05T13:15:12.880Z,31.37
2019-04-05T13:17:41.347Z,30.70
2019-04-05T13:20:13.025Z,29.97
2019-04-05T13:22:43.879Z,16.10
2019-04-05T13:25:14.815Z,9.63
2019-04-05T13:27:45.471Z,7.90
2019-04-05T13:30:19.270Z,8.40
2019-04-05T13:32:52.753Z,7.97
2019-04-05T13:35:22.901Z,8.60
2019-04-05T13:37:54.020Z,9.47
2019-04-05T13:40:24.750Z,8.63
2019-04-05T13:42:55.856Z,9.97
2019-04-05T13:45:26.644Z,8.73
2019-04-05T13:47:57.510Z,8.53
2019-04-05T13:50:28.600Z,8.90
2019-04-05T13:52:59.363Z,10.57
2019-04-05T13:55:30.380Z,9.90
2019-04-05T13:58:01.570Z,8.70
2019-04-05T14:00:32.596Z,9.33
2019-04-05T14:03:03.556Z,8.67
2019-04-05T14:05:34.267Z,9.37
2019-04-05T14:08:10.208Z,9.20
2019-04-05T14:10:39.702Z,10.73
2019-04-05T14:13:11.620Z,9.77
2019-04-05T14:15:43.068Z,9.73
2019-04-05T14:18:15.220Z,9.80
2019-04-05T14:20:49.616Z,10.07
2019-04-05T14:23:23.276Z,10.10
2019-04-05T14:25:52.711Z,9.73
2019-04-05T14:28:23.682Z,9.73
2019-04-05T14:30:54.776Z,10.43
2019-04-05T14:33:25.804Z,10.17
2019-04-05T14:35:56.732Z,10.10
2019-04-05T14:38:27.463Z,10.27
2019-04-05T14:40:58.158Z,10.43
2019-04-05T14:43:29.146Z,10.77
2019-04-05T14:46:02.670Z,10.43
2019-04-05T14:48:32.237Z,10.47
2019-04-05T14:51:03.014Z,9.90
2019-04-05T14:53:33.745Z,10.73
2019-04-05T14:56:04.527Z,9.43
2019-04-05T14:58:35.191Z,9.63
2019-04-05T15:01:06.334Z,11.73
2019-04-05T15:03:36.986Z,10.23
2019-04-05T15:06:08.647Z,9.87
2019-04-05T15:08:39.318Z,9.90
2019-04-05T15:11:11.224Z,9.77
2019-04-05T15:13:43.144Z,10.03
2019-04-05T15:16:14.535Z,10.00
2019-04-05T15:18:45.752Z,10.13
2019-04-05T15:21:16.782Z,10.30
2019-04-05T15:23:47.758Z,10.73
2019-04-05T15:26:21.269Z,10.60
2019-04-05T15:28:54.613Z,9.47
2019-04-05T15:31:26.460Z,10.07
2019-04-05T15:33:57.722Z,24.83
2019-04-05T15:36:31.553Z,14.40
2019-04-05T15:39:03.110Z,22.97
2019-04-05T15:41:34.877Z,23.43
2019-04-05T15:44:05.912Z,26.90
2019-04-05T15:46:36.948Z,24.60
2019-04-05T15:49:07.983Z,24.47
2019-04-05T15:51:38.661Z,29.47
2019-04-05T15:54:10.576Z,25.03
2019-04-05T15:56:41.612Z,24.30
2019-04-05T15:59:12.668Z,22.57
2019-04-05T16:01:43.703Z,22.30
2019-04-05T16:04:14.648Z,22.03
2019-04-05T16:06:45.457Z,22.50
2019-04-05T16:09:18.260Z,21.77
2019-04-05T16:11:48.955Z,23.60
2019-04-05T16:14:19.620Z,24.40
2019-04-05T16:16:50.588Z,25.50
2019-04-05T16:19:21.268Z,24.20
2019-04-05T16:21:51.932Z,24.37
2019-04-05T16:24:22.940Z,25.80
2019-04-05T16:26:53.608Z,25.73
2019-04-05T16:29:24.406Z,24.63
2019-04-05T16:31:55.357Z,23.77
2019-04-05T16:34:26.036Z,21.93
2019-04-05T16:36:57.044Z,22.70
2019-04-05T16:39:27.985Z,22.63
2019-04-05T16:41:58.904Z,21.20
2019-04-05T16:44:29.831Z,22.47
2019-04-05T16:47:00.744Z,21.87
2019-04-05T16:49:31.695Z,21.20
2019-04-05T16:52:02.370Z,20.97
2019-04-05T16:54:34.278Z,19.50
2019-04-05T16:57:05.715Z,19.40
2019-04-05T16:59:37.870Z,18.60
2019-04-05T17:02:09.190Z,21.50
2019-04-05T17:04:40.128Z,18.33
2019-04-05T17:07:11.082Z,26.17
2019-04-05T17:09:42.032Z,16.93
2019-04-05T17:12:13.007Z,15.23
2019-04-05T17:14:44.659Z,13.40
2019-04-05T17:17:15.352Z,13.60
2019-04-05T17:19:46.280Z,13.03
2019-04-05T17:22:16.988Z,12.67
2019-04-05T17:24:48.003Z,11.40
2019-04-05T17:27:18.678Z,10.30
2019-04-05T17:29:49.748Z,11.47
2019-04-05T17:32:20.425Z,11.07
2019-04-05T17:34:51.507Z,12.60
2019-04-05T17:37:22.607Z,19.70
2019-04-05T17:39:53.322Z,22.27
2019-04-05T17:42:24.400Z,21.50
2019-04-05T17:44:55.648Z,22.33
2019-04-05T17:47:26.692Z,28.27
2019-04-05T17:49:57.820Z,29.07
2019-04-05T17:52:28.537Z,31.17
2019-04-05T17:54:59.463Z,32.17
2019-04-05T17:57:30.947Z,34.03
2019-04-05T18:00:02.387Z,35.17
2019-04-05T18:02:33.467Z,34.50
2019-04-05T18:05:05.295Z,35.53
2019-04-05T18:07:37.967Z,34.70
2019-04-05T18:10:09.191Z,33.83
2019-04-05T18:12:39.898Z,34.83
2019-04-05T18:15:10.945Z,35.23
2019-04-05T18:17:41.635Z,37.23
2019-04-05T18:20:12.732Z,36.53
2019-04-05T18:22:43.671Z,36.10
2019-04-05T18:25:14.569Z,35.10
2019-04-05T18:27:45.211Z,34.30
2019-04-05T18:30:16.255Z,34.33
2019-04-05T18:32:47.285Z,36.87
2019-04-05T18:35:17.994Z,36.80
2019-04-05T18:37:49.010Z,37.47
2019-04-05T18:40:19.982Z,37.57
2019-04-05T18:42:50.656Z,37.93
2019-04-05T18:45:21.725Z,37.93
2019-04-05T18:47:52.965Z,37.33
2019-04-05T18:50:23.665Z,38.03
2019-04-05T18:52:54.666Z,37.70
2019-04-05T18:55:25.336Z,37.87
2019-04-05T18:57:56.423Z,37.07
2019-04-05T19:00:27.458Z,38.97
2019-04-05T19:02:58.145Z,37.40
2019-04-05T19:05:28.868Z,38.13
2019-04-05T19:07:59.551Z,37.57
2019-04-05T19:10:36.782Z,38.20
2019-04-05T19:13:02.855Z,53.00
2019-04-05T19:15:33.907Z,47.80
2019-04-05T19:18:04.587Z,98.97
2019-04-05T19:20:36.938Z,72.30
2019-04-05T19:23:08.708Z,38.73
2019-04-05T19:25:39.685Z,39.20
2019-04-05T19:28:10.743Z,39.90
2019-04-05T19:51:00.735Z,39.50
2019-04-05T19:53:31.680Z,39.57
2019-04-05T19:56:02.936Z,39.57
2019-04-05T19:58:33.889Z,40.50
2019-04-05T20:01:04.920Z,42.40
2019-04-05T20:03:36.961Z,43.03
2019-04-05T20:06:08.039Z,42.83
2019-04-05T20:08:38.712Z,41.53
2019-04-05T20:11:09.872Z,46.13
2019-04-05T20:13:40.906Z,45.67
2019-04-05T20:16:11.865Z,45.80
2019-04-05T20:18:42.653Z,48.30
2019-04-05T20:21:13.446Z,45.23
2019-04-05T20:23:47.775Z,47.33
2019-04-05T20:26:17.070Z,48.87
2019-04-05T20:28:47.772Z,48.77
2019-04-05T20:31:18.731Z,47.07
2019-04-05T20:33:49.883Z,49.73
2019-04-05T20:36:20.854Z,47.57
2019-04-05T20:38:51.647Z,50.27
2019-04-05T20:41:22.348Z,49.33
2019-04-05T20:43:53.039Z,46.73
2019-04-05T20:46:24.997Z,48.70
2019-04-05T20:48:55.734Z,48.57
2019-04-05T20:51:26.676Z,47.63
2019-04-05T20:53:57.386Z,47.10
2019-04-05T20:56:28.497Z,51.07
2019-04-05T20:58:59.552Z,48.77
2019-04-05T21:01:30.227Z,48.43
2019-04-05T21:04:00.922Z,50.27
2019-04-05T21:06:31.613Z,49.73
2019-04-05T21:09:02.574Z,50.17
2019-04-05T21:11:35.022Z,48.40
2019-04-05T21:14:05.983Z,48.63
2019-04-05T21:16:37.043Z,52.37
2019-04-05T21:19:07.725Z,49.33
2019-04-05T21:21:38.819Z,50.63
2019-04-05T21:24:09.482Z,50.73
2019-04-05T21:26:40.586Z,50.00
2019-04-05T21:29:11.274Z,52.67
2019-04-05T21:31:42.249Z,59.23
2019-04-05T21:34:13.291Z,80.00
2019-04-05T21:36:46.157Z,81.50
2019-04-05T21:39:16.881Z,55.33
2019-04-05T21:41:47.877Z,53.90
2019-04-05T21:44:19.003Z,54.13
2019-04-05T21:46:49.671Z,52.63
2019-04-05T21:49:20.647Z,48.03
2019-04-05T21:51:51.324Z,51.77
2019-04-05T21:54:22.718Z,49.47
2019-04-05T21:56:53.392Z,49.50
2019-04-05T21:59:24.406Z,50.87
2019-04-05T22:01:55.463Z,50.47
2019-04-05T22:04:26.407Z,49.47
2019-04-05T22:06:57.089Z,46.77
2019-04-05T22:09:28.323Z,47.47
2019-04-05T22:11:59.058Z,44.10
2019-04-05T22:14:29.697Z,40.43
2019-04-05T22:17:00.663Z,30.73
2019-04-05T22:19:31.357Z,28.43
2019-04-05T22:22:02.035Z,31.27
2019-04-05T22:24:32.860Z,29.13
2019-04-05T22:27:04.364Z,30.67
2019-04-05T22:29:35.125Z,25.70
2019-04-05T22:32:06.331Z,27.23
2019-04-05T22:34:36.993Z,29.17
2019-04-05T22:37:07.698Z,28.40
2019-04-05T22:39:38.356Z,29.93
2019-04-05T22:42:09.415Z,29.23
2019-04-05T22:44:41.512Z,29.70
2019-04-05T22:47:12.467Z,30.60
2019-04-05T22:49:43.420Z,29.83
2019-04-05T22:52:14.346Z,31.83
2019-04-05T22:54:45.095Z,31.23
2019-04-05T22:57:16.114Z,28.17
2019-04-05T22:59:46.985Z,29.57
2019-04-05T23:02:17.960Z,31.20
2019-04-05T23:04:48.660Z,29.27
2019-04-05T23:07:19.405Z,28.33
2019-04-05T23:09:50.330Z,30.93
2019-04-05T23:12:21.010Z,29.37
2019-04-05T23:14:51.699Z,29.00
2019-04-05T23:17:22.382Z,27.13
2019-04-05T23:19:53.039Z,27.50
2019-04-05T23:22:23.719Z,29.00
2019-04-05T23:24:54.643Z,27.03
2019-04-05T23:27:25.593Z,22.67
2019-04-05T23:29:56.250Z,21.30
2019-04-05T23:32:26.951Z,22.07
2019-04-05T23:34:57.616Z,24.40
2019-04-05T23:37:28.595Z,24.97
2019-04-05T23:39:59.251Z,23.83
2019-04-05T23:42:29.954Z,22.93
2019-04-05T23:45:00.964Z,23.43
2019-04-05T23:47:31.728Z,21.97
2019-04-05T23:50:03.539Z,24.23
2019-04-05T23:52:35.307Z,22.30
2019-04-05T23:55:08.095Z,22.27
2019-04-05T23:57:38.777Z,22.70
